sensor_id;sensor_type;location;lat;lon;timestamp;P1;durP1;ratioP1;P2;durP2;ratioP2
84150;SDS011;74270;52.362;4.886;2023-11-18T21:31:49;25.88;;;13.23;;
84150;SDS011;74270;52.362;4.886;2023-11-18T21:34:15;24.30;;;13.25;;
84150;SDS011;74270;52.362;4.886;2023-11-18T21:36:41;20.23;;;12.63;;
84150;SDS011;74270;52.362;4.886;2023-11-18T21:39:07;20.65;;;12.25;;
84150;SDS011;74270;52.362;4.886;2023-11-18T21:41:38;22.70;;;12.88;;
84150;SDS011;74270;52.362;4.886;2023-11-18T21:44:04;19.02;;;11.30;;
84150;SDS011;74270;52.362;4.886;2023-11-18T21:46:33;19.45;;;11.70;;
84150;SDS011;74270;52.362;4.886;2023-11-18T21:49:01;18.13;;;11.27;;
84150;SDS011;74270;52.362;4.886;2023-11-18T21:51:27;19.83;;;12.27;;
84150;SDS011;74270;52.362;4.886;2023-11-18T21:53:56;20.73;;;11.65;;
84150;SDS011;74270;52.362;4.886;2023-11-18T21:56:22;18.70;;;11.20;;
84150;SDS011;74270;52.362;4.886;2023-11-18T21:58:48;21.30;;;11.77;;
84150;SDS011;74270;52.362;4.886;2023-11-18T22:01:14;19.77;;;11.27;;
84150;SDS011;74270;52.362;4.886;2023-11-18T22:03:40;15.27;;;10.98;;
84150;SDS011;74270;52.362;4.886;2023-11-18T22:06:06;16.40;;;10.95;;
84150;SDS011;74270;52.362;4.886;2023-11-18T22:08:32;19.23;;;11.85;;
84150;SDS011;74270;52.362;4.886;2023-11-18T22:10:58;17.48;;;11.43;;
84150;SDS011;74270;52.362;4.886;2023-11-18T22:13:25;21.35;;;11.75;;
84150;SDS011;74270;52.362;4.886;2023-11-18T22:15:51;18.73;;;11.02;;
84150;SDS011;74270;52.362;4.886;2023-11-18T22:18:19;23.10;;;11.75;;
84150;SDS011;74270;52.362;4.886;2023-11-18T22:20:47;18.40;;;11.20;;
84150;SDS011;74270;52.362;4.886;2023-11-18T22:23:13;19.40;;;11.18;;
84150;SDS011;74270;52.362;4.886;2023-11-18T22:25:40;19.33;;;11.00;;
84150;SDS011;74270;52.362;4.886;2023-11-18T22:28:09;18.45;;;10.48;;
84150;SDS011;74270;52.362;4.886;2023-11-18T22:30:36;17.35;;;10.45;;
84150;SDS011;74270;52.362;4.886;2023-11-18T22:33:02;14.95;;;9.98;;
84150;SDS011;74270;52.362;4.886;2023-11-18T22:35:30;17.02;;;10.23;;
84150;SDS011;74270;52.362;4.886;2023-11-18T22:37:57;16.98;;;10.05;;
84150;SDS011;74270;52.362;4.886;2023-11-18T22:40:25;14.57;;;10.15;;
84150;SDS011;74270;52.362;4.886;2023-11-18T22:42:51;15.05;;;9.32;;
84150;SDS011;74270;52.362;4.886;2023-11-18T22:45:17;16.55;;;9.90;;
84150;SDS011;74270;52.362;4.886;2023-11-18T22:47:47;17.33;;;9.80;;
84150;SDS011;74270;52.362;4.886;2023-11-18T22:50:18;17.77;;;10.07;;
84150;SDS011;74270;52.362;4.886;2023-11-18T22:52:46;15.27;;;10.25;;
84150;SDS011;74270;52.362;4.886;2023-11-18T22:55:15;16.70;;;10.40;;
84150;SDS011;74270;52.362;4.886;2023-11-18T22:57:44;16.75;;;10.07;;
84150;SDS011;74270;52.362;4.886;2023-11-18T23:00:11;15.75;;;9.25;;
84150;SDS011;74270;52.362;4.886;2023-11-18T23:02:56;18.95;;;9.50;;
84150;SDS011;74270;52.362;4.886;2023-11-18T23:05:22;15.50;;;9.45;;
84150;SDS011;74270;52.362;4.886;2023-11-18T23:07:50;16.67;;;9.35;;
84150;SDS011;74270;52.362;4.886;2023-11-18T23:10:16;12.95;;;8.95;;
84150;SDS011;74270;52.362;4.886;2023-11-18T23:12:43;14.98;;;9.25;;
84150;SDS011;74270;52.362;4.886;2023-11-18T23:15:10;15.52;;;9.25;;
84150;SDS011;74270;52.362;4.886;2023-11-18T23:17:37;16.17;;;9.23;;
84150;SDS011;74270;52.362;4.886;2023-11-18T23:20:04;13.43;;;8.80;;
84150;SDS011;74270;52.362;4.886;2023-11-18T23:22:35;16.13;;;8.98;;
84150;SDS011;74270;52.362;4.886;2023-11-18T23:25:01;14.82;;;9.10;;
84150;SDS011;74270;52.362;4.886;2023-11-18T23:27:28;14.95;;;7.93;;
84150;SDS011;74270;52.362;4.886;2023-11-18T23:29:56;14.32;;;8.27;;
84150;SDS011;74270;52.362;4.886;2023-11-18T23:32:22;12.48;;;8.77;;
84150;SDS011;74270;52.362;4.886;2023-11-18T23:34:48;14.43;;;8.30;;
84150;SDS011;74270;52.362;4.886;2023-11-18T23:37:14;12.20;;;8.32;;
84150;SDS011;74270;52.362;4.886;2023-11-18T23:39:40;15.00;;;8.50;;
84150;SDS011;74270;52.362;4.886;2023-11-18T23:42:06;12.93;;;8.35;;
84150;SDS011;74270;52.362;4.886;2023-11-18T23:44:33;12.40;;;7.70;;
84150;SDS011;74270;52.362;4.886;2023-11-18T23:47:00;13.55;;;8.32;;
84150;SDS011;74270;52.362;4.886;2023-11-18T23:49:27;15.13;;;7.85;;
84150;SDS011;74270;52.362;4.886;2023-11-18T23:51:53;14.75;;;7.70;;
84150;SDS011;74270;52.362;4.886;2023-11-18T23:54:19;17.40;;;8.30;;
84150;SDS011;74270;52.362;4.886;2023-11-18T23:59:14;12.80;;;7.97;;
